Time;durP1;ratioP1;P1;durP2;ratioP2;P2;SDS_P1;SDS_P2;PMS_P1;PMS_P2;Temp;Humidity;BMP_temperature;BMP_pressure;BME280_temperature;BME280_humidity;BME280_pressure;Samples;Min_cycle;Max_cycle;Signal;HPM_P1;HPM_P2
2023/06/25 00:00:26;;;;;;;;;;;;;;;17.69;100.00;101991.63;5009534;28;19921;-70
2023/06/25 00:02:51;;;;;;;;;;;;;;;17.65;100.00;101990.19;5007256;28;19921;-70
2023/06/25 00:05:16;;;;;;;;;;;;;;;17.63;100.00;101985.91;5007467;28;20876;-70
2023/06/25 00:07:42;;;;;;;;;;;;;;;17.64;100.00;101982.19;5012297;28;19921;-70
2023/06/25 00:10:07;;;;;;;;;;;;;;;17.64;100.00;101977.59;5012261;28;20321;-70
2023/06/25 00:12:32;;;;;;;;;;;;;;;17.56;100.00;101980.16;5002703;28;19921;-70
2023/06/25 00:14:58;;;;;;;;;;;;;;;17.50;100.00;101984.25;5008565;28;20569;-69
2023/06/25 00:17:27;;;;;;;;;;;;;;;17.44;100.00;101984.84;5010330;28;19925;-70
2023/06/25 00:19:52;;;;;;;;;;;;;;;17.38;100.00;101980.78;5008595;28;19987;-70
2023/06/25 00:22:18;;;;;;;;;;;;;;;17.35;100.00;101980.22;5004668;28;20044;-70
2023/06/25 00:24:43;;;;;;;;;;;;;;;17.35;100.00;101986.50;5002481;28;19960;-69
2023/06/25 00:27:08;;;;;;;;;;;;;;;17.30;100.00;101985.19;5002838;28;19922;-70
2023/06/25 00:29:34;;;;;;;;;;;;;;;17.29;100.00;101984.34;5010642;28;19966;-69
2023/06/25 00:31:59;;;;;;;;;;;;;;;17.32;100.00;101984.09;5008761;28;19929;-69
2023/06/25 00:34:24;;;;;;;;;;;;;;;17.29;100.00;101978.03;5009707;28;19921;-70
2023/06/25 00:36:51;;;;;;;;;;;;;;;17.08;100.00;101949.94;5012935;28;19921;-70
2023/06/25 00:39:17;;;;;;;;;;;;;;;17.24;100.00;101976.59;5013730;28;19920;-70
2023/06/25 00:41:42;;;;;;;;;;;;;;;17.22;100.00;101975.03;5014595;28;20424;-70
2023/06/25 00:44:08;;;;;;;;;;;;;;;17.20;100.00;101977.88;5014961;28;19921;-69
2023/06/25 00:46:33;;;;;;;;;;;;;;;17.19;100.00;101976.16;5015190;28;19956;-70
2023/06/25 00:49:01;;;;;;;;;;;;;;;17.15;100.00;101968.41;5013227;28;20085;-69
2023/06/25 00:51:27;;;;;;;;;;;;;;;17.08;100.00;101965.38;5013113;28;19944;-69
2023/06/25 00:53:52;;;;;;;;;;;;;;;17.08;100.00;101970.81;5015430;28;20368;-70
2023/06/25 00:56:17;;;;;;;;;;;;;;;17.04;100.00;101966.66;5017318;28;19921;-70
2023/06/25 00:58:43;;;;;;;;;;;;;;;17.00;100.00;101963.34;5005802;28;19929;-69
2023/06/25 01:01:17;;;;;;;;;;;;;;;16.98;100.00;101972.59;5015204;28;20005;-70
2023/06/25 01:03:43;;;;;;;;;;;;;;;16.97;100.00;101962.75;5027058;28;19994;-70
2023/06/25 01:06:14;;;;;;;;;;;;;;;16.96;100.00;101955.59;5015165;28;20220;-70
2023/06/25 01:08:39;;;;;;;;;;;;;;;16.96;100.00;101955.59;5029502;28;19937;-70
2023/06/25 01:11:05;;;;;;;;;;;;;;;16.98;100.00;101953.59;5013018;28;19975;-69
2023/06/25 01:13:31;;;;;;;;;;;;;;;16.91;100.00;101950.56;5004342;28;19991;-70
2023/06/25 01:15:56;;;;;;;;;;;;;;;16.85;100.00;101951.94;5013710;28;20058;-69
2023/06/25 01:18:22;;;;;;;;;;;;;;;16.80;100.00;101954.19;5012689;28;19928;-69
2023/06/25 01:20:51;;;;;;;;;;;;;;;16.76;100.00;101950.91;5013185;28;19921;-69
2023/06/25 01:23:16;;;;;;;;;;;;;;;16.46;100.00;101900.19;5012289;28;19943;-70
2023/06/25 01:25:47;;;;;;;;;;;;;;;16.77;100.00;101949.91;5009500;28;20455;-70
2023/06/25 01:28:12;;;;;;;;;;;;;;;16.81;100.00;101944.22;5015559;28;19921;-69
2023/06/25 01:30:37;;;;;;;;;;;;;;;16.79;100.00;101941.63;5012544;28;19932;-70
2023/06/25 01:33:02;;;;;;;;;;;;;;;16.76;100.00;101940.06;5011879;28;19921;-70
2023/06/25 01:35:27;;;;;;;;;;;;;;;16.72;100.00;101933.19;5012108;28;19921;-70
2023/06/25 01:37:53;;;;;;;;;;;;;;;16.70;100.00;101931.56;5012195;28;20422;-70
2023/06/25 01:40:18;;;;;;;;;;;;;;;16.66;100.00;101927.44;5013233;28;20335;-70
2023/06/25 01:42:43;;;;;;;;;;;;;;;16.62;100.00;101927.69;5013818;28;20146;-70
2023/06/25 01:45:09;;;;;;;;;;;;;;;16.62;100.00;101925.00;5014352;28;19974;-70
2023/06/25 01:47:36;;;;;;;;;;;;;;;16.62;100.00;101919.56;5013526;28;20352;-70
2023/06/25 01:50:01;;;;;;;;;;;;;;;16.61;100.00;101919.69;5010032;28;19932;-70
2023/06/25 01:52:26;;;;;;;;;;;;;;;16.53;100.00;101912.22;5016366;28;19928;-70
2023/06/25 01:54:51;;;;;;;;;;;;;;;16.43;100.00;101917.59;5013256;28;20046;-69
2023/06/25 01:57:17;;;;;;;;;;;;;;;16.35;100.00;101914.66;5014062;28;19931;-70
2023/06/25 01:59:42;;;;;;;;;;;;;;;16.32;100.00;101910.38;5006886;28;19921;-69
2023/06/25 02:02:07;;;;;;;;;;;;;;;16.34;100.00;101912.94;5011505;28;19928;-69
2023/06/25 02:04:32;;;;;;;;;;;;;;;16.36;100.00;101912.81;5010079;28;19925;-70
2023/06/25 02:06:58;;;;;;;;;;;;;;;16.34;100.00;101916.53;5011515;28;20279;-70
2023/06/25 02:09:23;;;;;;;;;;;;;;;16.33;100.00;101916.63;5012389;28;20039;-70
2023/06/25 02:11:48;;;;;;;;;;;;;;;16.31;100.00;101910.47;5011291;28;19921;-70
2023/06/25 02:14:13;;;;;;;;;;;;;;;16.26;100.00;101904.63;5006684;28;19932;-70
2023/06/25 02:16:39;;;;;;;;;;;;;;;16.25;100.00;101902.91;5014312;28;19920;-70
2023/06/25 02:19:04;;;;;;;;;;;;;;;16.26;100.00;101893.78;5010667;28;19925;-70
2023/06/25 02:21:29;;;;;;;;;;;;;;;16.25;100.00;101892.06;5014179;28;19924;-70
2023/06/25 02:23:54;;;;;;;;;;;;;;;16.24;100.00;101888.47;5012505;28;19921;-70
2023/06/25 02:26:20;;;;;;;;;;;;;;;16.25;100.00;101879.38;5006548;28;19936;-70
2023/06/25 02:28:45;;;;;;;;;;;;;;;16.23;100.00;101886.75;5002953;28;19968;-70
2023/06/25 02:31:10;;;;;;;;;;;;;;;16.21;100.00;101885.19;5014750;28;20383;-70
2023/06/25 02:33:35;;;;;;;;;;;;;;;16.19;100.00;101872.63;5008439;28;20451;-70
2023/06/25 02:36:01;;;;;;;;;;;;;;;16.18;100.00;101876.31;5006335;28;20492;-70
2023/06/25 02:38:26;;;;;;;;;;;;;;;16.16;100.00;101875.59;5011187;28;19928;-69
2023/06/25 02:40:51;;;;;;;;;;;;;;;16.14;100.00;101869.44;5012609;28;20375;-70
2023/06/25 02:43:16;;;;;;;;;;;;;;;16.14;100.00;101871.31;5005820;28;19917;-70
2023/06/25 02:45:42;;;;;;;;;;;;;;;16.10;100.00;101876.13;5008890;28;20026;-70
2023/06/25 02:48:07;;;;;;;;;;;;;;;16.02;100.00;101865.09;5012366;28;20020;-70
2023/06/25 02:50:32;;;;;;;;;;;;;;;15.98;100.00;101867.19;5010645;28;19921;-70
2023/06/25 02:52:58;;;;;;;;;;;;;;;15.91;100.00;101865.97;5018054;28;20134;-70
2023/06/25 02:55:23;;;;;;;;;;;;;;;15.89;100.00;101863.41;5025252;28;20032;-70
2023/06/25 02:57:48;;;;;;;;;;;;;;;15.91;100.00;101865.97;5008156;28;20058;-70
2023/06/25 03:00:13;;;;;;;;;;;;;;;15.91;100.00;101868.69;5007898;28;20406;-70
2023/06/25 03:02:38;;;;;;;;;;;;;;;15.85;100.00;101867.31;5004279;28;20259;-70
2023/06/25 03:05:04;;;;;;;;;;;;;;;15.83;100.00;101865.75;5008294;28;19930;-70
2023/06/25 03:07:29;;;;;;;;;;;;;;;15.79;100.00;101862.41;5008181;28;19928;-70
2023/06/25 03:09:54;;;;;;;;;;;;;;;15.79;100.00;101862.41;5011151;28;19964;-70
2023/06/25 03:12:19;;;;;;;;;;;;;;;15.78;100.00;101862.56;5004200;28;20012;-70
2023/06/25 03:14:45;;;;;;;;;;;;;;;15.76;100.00;101862.66;5005055;28;19931;-70
2023/06/25 03:17:10;;;;;;;;;;;;;;;15.73;100.00;101858.38;5005601;28;19921;-70
2023/06/25 03:19:35;;;;;;;;;;;;;;;15.73;100.00;101857.53;5008392;28;20274;-70
2023/06/25 03:22:00;;;;;;;;;;;;;;;15.70;100.00;101865.91;5010518;28;20260;-70
2023/06/25 03:24:26;;;;;;;;;;;;;;;15.67;100.00;101861.59;5011676;28;20402;-70
2023/06/25 03:26:51;;;;;;;;;;;;;;;15.68;100.00;101865.19;5011190;28;20397;-70
2023/06/25 03:29:16;;;;;;;;;;;;;;;15.66;100.00;101859.03;4995318;28;21070;-70
2023/06/25 03:31:41;;;;;;;;;;;;;;;15.47;100.00;101838.94;5009413;28;20367;-70
2023/06/25 03:34:06;;;;;;;;;;;;;;;15.64;100.00;101856.44;5009307;28;19928;-70
2023/06/25 03:36:32;;;;;;;;;;;;;;;15.65;100.00;101854.59;5010867;28;19921;-70
2023/06/25 03:38:57;;;;;;;;;;;;;;;15.65;100.00;101849.19;5008645;28;19933;-70
2023/06/25 03:41:23;;;;;;;;;;;;;;;15.65;100.00;101851.91;5011533;28;20364;-70
2023/06/25 03:43:48;;;;;;;;;;;;;;;15.59;100.00;101848.72;5002254;28;20011;-70
2023/06/25 03:46:13;;;;;;;;;;;;;;;15.60;100.00;101849.59;5009478;28;19931;-70
2023/06/25 03:48:40;;;;;;;;;;;;;;;15.65;100.00;101852.75;5009972;28;19924;-70
2023/06/25 03:51:05;;;;;;;;;;;;;;;15.67;100.00;101847.22;5012815;28;19961;-70
2023/06/25 03:53:30;;;;;;;;;;;;;;;15.66;100.00;101843.63;5009815;28;20016;-70
2023/06/25 03:55:55;;;;;;;;;;;;;;;15.64;100.00;101840.19;5012431;28;19921;-70
2023/06/25 03:58:21;;;;;;;;;;;;;;;15.61;100.00;101835.06;5012707;28;19968;-70
2023/06/25 04:00:46;;;;;;;;;;;;;;;15.64;100.00;101834.78;5008744;28;20390;-70
2023/06/25 04:03:11;;;;;;;;;;;;;;;15.67;100.00;101842.66;5008806;28;19921;-70
2023/06/25 04:05:37;;;;;;;;;;;;;;;15.70;100.00;101838.84;5009397;28;19976;-70
2023/06/25 04:08:02;;;;;;;;;;;;;;;15.72;100.00;101835.00;5012671;28;20317;-70
2023/06/25 04:10:28;;;;;;;;;;;;;;;15.73;100.00;101844.84;5012584;28;20430;-70
2023/06/25 04:12:53;;;;;;;;;;;;;;;15.73;100.00;101838.59;5009162;28;19921;-70
2023/06/25 04:15:18;;;;;;;;;;;;;;;15.73;100.00;101842.16;5014766;28;19921;-70
2023/06/25 04:17:46;;;;;;;;;;;;;;;15.72;100.00;101845.00;5006557;28;20344;-70
2023/06/25 04:20:11;;;;;;;;;;;;;;;15.71;100.00;101833.28;5012117;28;19921;-70
2023/06/25 04:22:37;;;;;;;;;;;;;;;15.72;100.00;101837.72;5016825;28;20485;-70
2023/06/25 04:25:02;;;;;;;;;;;;;;;15.77;100.00;101844.59;5011943;28;20551;-70
2023/06/25 04:27:27;;;;;;;;;;;;;;;15.83;100.00;101849.50;5008672;28;20587;-70
2023/06/25 04:29:52;;;;;;;;;;;;;;;15.86;100.00;101841.16;5007903;28;19921;-70
2023/06/25 04:32:17;;;;;;;;;;;;;;;15.91;100.00;101838.88;5010213;28;19967;-70
2023/06/25 04:34:43;;;;;;;;;;;;;;;15.99;100.00;101847.22;5013143;28;19967;-70
2023/06/25 04:37:08;;;;;;;;;;;;;;;16.04;100.00;101847.72;5004910;28;19918;-70
2023/06/25 04:39:33;;;;;;;;;;;;;;;16.11;100.00;101842.63;4995053;28;19921;-70
2023/06/25 04:41:58;;;;;;;;;;;;;;;16.22;100.00;101852.53;5009922;28;20003;-70
2023/06/25 04:44:24;;;;;;;;;;;;;;;16.33;100.00;101844.34;5011319;28;20339;-70
2023/06/25 04:46:49;;;;;;;;;;;;;;;16.16;100.00;101807.00;5017618;28;20383;-70
2023/06/25 04:49:15;;;;;;;;;;;;;;;16.52;100.00;101848.16;5011676;28;19933;-70
2023/06/25 04:51:44;;;;;;;;;;;;;;;16.62;100.00;101837.34;5010422;28;19925;-70
2023/06/25 04:54:09;;;;;;;;;;;;;;;16.73;100.00;101842.69;5009492;28;19921;-70
2023/06/25 04:56:34;;;;;;;;;;;;;;;16.87;100.00;101848.75;5012489;28;19959;-70
2023/06/25 04:58:59;;;;;;;;;;;;;;;17.00;100.00;101843.09;5011261;28;19921;-70
2023/06/25 05:01:25;;;;;;;;;;;;;;;17.08;100.00;101840.56;5010403;28;20798;-70
2023/06/25 05:03:50;;;;;;;;;;;;;;;17.14;100.00;101839.16;5007126;28;19925;-70
2023/06/25 05:06:15;;;;;;;;;;;;;;;17.27;100.00;101837.06;5012088;28;20355;-71
2023/06/25 05:08:40;;;;;;;;;;;;;;;17.40;100.00;101842.25;5012432;28;20612;-71
2023/06/25 05:11:05;;;;;;;;;;;;;;;17.55;100.00;101837.25;5011425;28;20364;-71
2023/06/25 05:13:31;;;;;;;;;;;;;;;17.63;100.00;101829.25;5016325;28;20371;-71
2023/06/25 05:15:56;;;;;;;;;;;;;;;17.75;100.00;101839.97;5013215;28;20363;-70
2023/06/25 05:18:21;;;;;;;;;;;;;;;17.89;100.00;101846.84;5007626;28;19921;-70
2023/06/25 05:20:47;;;;;;;;;;;;;;;17.99;100.00;101843.16;5013752;28;20479;-70
2023/06/25 05:23:12;;;;;;;;;;;;;;;18.07;100.00;101842.41;5016021;28;20368;-70
2023/06/25 05:25:37;;;;;;;;;;;;;;;18.07;100.00;101811.69;5014363;28;19960;-70
2023/06/25 05:28:03;;;;;;;;;;;;;;;18.36;100.00;101824.38;5014698;28;19921;-70
2023/06/25 05:30:28;;;;;;;;;;;;;;;18.50;100.00;101818.44;5016312;28;19921;-71
2023/06/25 05:32:54;;;;;;;;;;;;;;;18.56;100.00;101828.72;5013502;28;19922;-70
2023/06/25 05:35:19;;;;;;;;;;;;;;;18.75;100.00;101821.50;5013111;28;19924;-70
2023/06/25 05:37:44;;;;;;;;;;;;;;;18.83;100.00;101816.16;5015364;28;19933;-70
2023/06/25 05:40:10;;;;;;;;;;;;;;;18.93;100.00;101818.00;5012660;28;19928;-70
2023/06/25 05:42:35;;;;;;;;;;;;;;;19.09;100.00;101826.38;5013966;28;19991;-70
2023/06/25 05:45:00;;;;;;;;;;;;;;;19.21;100.00;101821.59;5014981;28;19991;-70
2023/06/25 05:47:26;;;;;;;;;;;;;;;19.28;100.00;101817.25;5015010;28;20000;-70
2023/06/25 05:49:51;;;;;;;;;;;;;;;19.38;100.00;101816.31;5017801;28;19936;-70
2023/06/25 05:52:16;;;;;;;;;;;;;;;19.51;100.00;101815.94;5016535;28;19927;-70
2023/06/25 05:54:41;;;;;;;;;;;;;;;19.62;100.00;101816.56;5016037;28;19927;-70
2023/06/25 05:57:06;;;;;;;;;;;;;;;19.72;100.00;101808.31;5014133;28;19921;-70
2023/06/25 05:59:32;;;;;;;;;;;;;;;19.84;100.00;101811.66;5013898;28;20173;-70
2023/06/25 06:01:57;;;;;;;;;;;;;;;19.99;100.00;101814.72;5010920;28;19960;-71
2023/06/25 06:04:22;;;;;;;;;;;;;;;20.13;100.00;101810.53;5006541;28;19927;-70
2023/06/25 06:06:47;;;;;;;;;;;;;;;20.20;100.00;101808.88;5015993;28;20000;-70
2023/06/25 06:09:12;;;;;;;;;;;;;;;20.32;100.00;101804.03;5011219;28;19921;-70
2023/06/25 06:11:38;;;;;;;;;;;;;;;20.40;100.00;101796.91;5010761;28;19921;-69
2023/06/25 06:14:04;;;;;;;;;;;;;;;20.49;100.00;101804.97;5007207;28;20101;-70
2023/06/25 06:16:29;;;;;;;;;;;;;;;20.59;100.00;101798.56;5012122;28;19928;-70
2023/06/25 06:18:54;;;;;;;;;;;;;;;20.74;100.00;101802.38;5009500;28;19925;-70
2023/06/25 06:21:19;;;;;;;;;;;;;;;20.87;100.00;101801.09;5012437;28;20004;-70
2023/06/25 06:23:44;;;;;;;;;;;;;;;21.01;100.00;101797.75;5013837;28;19925;-70
2023/06/25 06:26:10;;;;;;;;;;;;;;;21.11;100.00;101794.88;5012753;28;19929;-70
2023/06/25 06:28:35;;;;;;;;;;;;;;;21.20;100.00;101795.75;5010189;28;20363;-70
2023/06/25 06:31:00;;;;;;;;;;;;;;;21.30;100.00;101799.19;5011587;28;19957;-70
2023/06/25 06:33:25;;;;;;;;;;;;;;;21.36;100.00;101794.91;5011158;28;19960;-70
2023/06/25 06:35:51;;;;;;;;;;;;;;;21.46;100.00;101792.03;5012684;28;19921;-70
2023/06/25 06:38:16;;;;;;;;;;;;;;;21.58;100.00;101791.53;5011197;28;20372;-70
2023/06/25 06:40:41;;;;;;;;;;;;;;;21.61;100.00;101793.13;5008191;28;21376;-69
2023/06/25 06:43:06;;;;;;;;;;;;;;;21.62;100.00;101785.75;5012664;28;19921;-70
2023/06/25 06:45:32;;;;;;;;;;;;;;;21.71;100.00;101788.34;5011646;28;19992;-70
2023/06/25 06:47:57;;;;;;;;;;;;;;;21.73;100.00;101789.00;5006899;28;20028;-70
2023/06/25 06:50:22;;;;;;;;;;;;;;;21.78;100.00;101782.19;5014699;28;20359;-70
2023/06/25 06:52:47;;;;;;;;;;;;;;;21.80;100.00;101789.22;5014903;28;19925;-70
2023/06/25 06:55:13;;;;;;;;;;;;;;;21.91;100.00;101784.41;5014006;28;19921;-70
2023/06/25 06:57:38;;;;;;;;;;;;;;;22.02;100.00;101784.06;4995038;28;20400;-69
2023/06/25 07:00:04;;;;;;;;;;;;;;;22.18;100.00;101788.66;5004524;28;20051;-70
2023/06/25 07:02:29;;;;;;;;;;;;;;;22.43;100.00;101789.47;5010917;28;19928;-70
2023/06/25 07:04:54;;;;;;;;;;;;;;;22.54;100.00;101781.94;5012388;28;19991;-69
2023/06/25 07:07:19;;;;;;;;;;;;;;;22.65;100.00;101777.94;5014860;28;20428;-69
2023/06/25 07:09:51;;;;;;;;;;;;;;;22.79;100.00;101774.44;5006804;28;20418;-70
2023/06/25 07:12:17;;;;;;;;;;;;;;;22.92;100.00;101780.22;5007089;28;19921;-70
2023/06/25 07:14:42;;;;;;;;;;;;;;;23.02;100.00;101773.69;5006388;28;20292;-70
2023/06/25 07:17:07;;;;;;;;;;;;;;;23.09;100.00;101773.81;5010675;28;19928;-70
2023/06/25 07:19:33;;;;;;;;;;;;;;;23.29;100.00;101779.72;5012398;28;19929;-70
2023/06/25 07:21:58;;;;;;;;;;;;;;;23.42;100.00;101784.59;5011934;28;19921;-70
2023/06/25 07:24:23;;;;;;;;;;;;;;;23.62;100.00;101782.19;5014824;28;19927;-70
2023/06/25 07:26:48;;;;;;;;;;;;;;;23.70;100.00;101782.13;5011463;28;19932;-70
2023/06/25 07:29:13;;;;;;;;;;;;;;;23.75;100.00;101776.97;5010996;28;19925;-70
2023/06/25 07:31:39;;;;;;;;;;;;;;;23.80;100.00;101777.25;5009376;28;19921;-70
2023/06/25 07:34:04;;;;;;;;;;;;;;;23.95;100.00;101777.31;4988921;28;19968;-70
2023/06/25 07:36:29;;;;;;;;;;;;;;;24.14;100.00;101774.22;5018102;28;20139;-70
2023/06/25 07:38:56;;;;;;;;;;;;;;;24.16;100.00;101767.53;5001677;28;19925;-70
2023/06/25 07:41:21;;;;;;;;;;;;;;;24.31;100.00;101761.19;5011956;28;20501;-70
2023/06/25 07:43:46;;;;;;;;;;;;;;;24.37;98.87;101764.00;5013998;28;19928;-70
2023/06/25 07:46:12;;;;;;;;;;;;;;;24.49;100.00;101769.91;5012336;28;19936;-70
2023/06/25 07:48:37;;;;;;;;;;;;;;;24.45;94.85;101740.28;5009657;28;19921;-70
2023/06/25 07:51:02;;;;;;;;;;;;;;;24.65;96.57;101752.34;5012270;28;19940;-70
2023/06/25 07:53:27;;;;;;;;;;;;;;;24.74;99.00;101744.91;5013139;28;19960;-70
2023/06/25 07:55:52;;;;;;;;;;;;;;;24.75;92.12;101748.50;5013333;28;20020;-71
2023/06/25 07:58:18;;;;;;;;;;;;;;;24.71;91.34;101756.28;5013874;28;19996;-72
2023/06/25 08:00:43;;;;;;;;;;;;;;;24.80;79.41;101751.53;5010649;28;19932;-71
2023/06/25 08:03:08;;;;;;;;;;;;;;;24.91;88.46;101755.66;5006266;28;19921;-76
2023/06/25 08:05:33;;;;;;;;;;;;;;;24.92;83.94;101755.47;5025520;28;20685;-72
2023/06/25 08:07:59;;;;;;;;;;;;;;;24.93;75.64;101753.59;5010733;28;19951;-71
2023/06/25 08:10:24;;;;;;;;;;;;;;;25.07;88.58;101754.59;5006126;28;19925;-72
2023/06/25 08:12:50;;;;;;;;;;;;;;;25.18;84.23;101750.47;5002703;28;19926;-74
2023/06/25 08:15:15;;;;;;;;;;;;;;;25.24;82.50;101749.72;5000984;28;19964;-74
2023/06/25 08:17:40;;;;;;;;;;;;;;;25.28;77.40;101753.78;5008351;28;19960;-71
2023/06/25 08:20:05;;;;;;;;;;;;;;;25.38;80.15;101751.53;5006285;28;19956;-71
2023/06/25 08:22:31;;;;;;;;;;;;;;;25.37;78.53;101741.56;5013669;28;20335;-73
2023/06/25 08:24:56;;;;;;;;;;;;;;;25.42;74.06;101750.09;5013171;28;19932;-72
2023/06/25 08:27:21;;;;;;;;;;;;;;;25.53;81.07;101745.16;5012946;28;19959;-74
2023/06/25 08:29:46;;;;;;;;;;;;;;;25.66;81.40;101739.75;5011673;28;19956;-72
2023/06/25 08:32:12;;;;;;;;;;;;;;;25.79;72.41;101740.94;5012504;28;19921;-71
2023/06/25 08:34:37;;;;;;;;;;;;;;;25.67;71.88;101735.13;5004063;28;20313;-80
2023/06/25 08:37:03;;;;;;;;;;;;;;;25.59;69.54;101736.97;5014694;28;20122;-72
2023/06/25 08:39:28;;;;;;;;;;;;;;;25.73;79.10;101737.94;5016487;28;19921;-72
2023/06/25 08:41:53;;;;;;;;;;;;;;;25.81;75.09;101736.09;5011115;28;19921;-72
2023/06/25 08:44:19;;;;;;;;;;;;;;;25.73;73.65;101731.56;5009994;28;20028;-74
2023/06/25 08:46:50;;;;;;;;;;;;;;;25.77;75.70;101729.28;5014859;28;19952;-74
2023/06/25 08:49:15;;;;;;;;;;;;;;;25.88;69.02;101732.31;5008326;28;20284;-73
2023/06/25 08:51:41;;;;;;;;;;;;;;;25.88;66.73;101732.31;5012824;28;19944;-74
2023/06/25 08:54:06;;;;;;;;;;;;;;;25.96;72.55;101722.19;5018576;28;20008;-78
2023/06/25 08:56:31;;;;;;;;;;;;;;;26.05;79.36;101719.13;5009453;28;19935;-75
2023/06/25 08:58:56;;;;;;;;;;;;;;;26.20;82.84;101719.03;5018786;28;19956;-74
2023/06/25 09:01:22;;;;;;;;;;;;;;;26.38;82.84;101719.53;5006880;28;19928;-74
2023/06/25 09:03:47;;;;;;;;;;;;;;;26.55;79.61;101720.03;5008789;28;19964;-74
2023/06/25 09:06:14;;;;;;;;;;;;;;;26.56;74.07;101718.97;5014303;28;19927;-76
2023/06/25 09:08:39;;;;;;;;;;;;;;;26.67;64.61;101720.28;5007795;28;19927;-73
2023/06/25 09:11:04;;;;;;;;;;;;;;;26.63;65.53;101717.94;5011558;28;19917;-75
2023/06/25 09:13:29;;;;;;;;;;;;;;;26.65;66.71;101723.25;5009437;28;20283;-72
2023/06/25 09:16:02;;;;;;;;;;;;;;;26.67;70.10;101717.53;5010620;28;20308;-73
2023/06/25 09:18:29;;;;;;;;;;;;;;;26.68;63.77;101711.84;5008663;28;20063;-72
2023/06/25 09:20:54;;;;;;;;;;;;;;;26.70;66.36;101718.00;5014484;28;20000;-72
2023/06/25 09:23:23;;;;;;;;;;;;;;;26.62;64.30;101713.50;5014124;28;19925;-74
2023/06/25 09:25:51;;;;;;;;;;;;;;;26.80;66.28;101714.84;5011375;28;19928;-73
2023/06/25 09:28:17;;;;;;;;;;;;;;;26.88;60.97;101708.31;5007806;28;20005;-73
2023/06/25 09:30:42;;;;;;;;;;;;;;;27.16;69.66;101708.16;5010519;28;20363;-74
2023/06/25 09:33:08;;;;;;;;;;;;;;;27.27;61.35;101715.00;5004503;28;20019;-73
2023/06/25 09:35:34;;;;;;;;;;;;;;;27.29;59.89;101710.09;5013653;28;20150;-73
2023/06/25 09:37:59;;;;;;;;;;;;;;;27.33;70.35;101697.59;5017710;28;19925;-74
2023/06/25 09:40:24;;;;;;;;;;;;;;;27.33;63.32;101705.03;5010888;28;21018;-74
2023/06/25 09:42:52;;;;;;;;;;;;;;;27.37;62.21;101707.13;5008451;28;20647;-74
2023/06/25 09:45:17;;;;;;;;;;;;;;;27.59;64.78;101706.13;5007181;28;19936;-73
2023/06/25 09:47:43;;;;;;;;;;;;;;;27.49;67.81;101698.28;5008432;28;19921;-73
2023/06/25 09:50:17;;;;;;;;;;;;;;;27.53;68.67;101697.63;5006467;28;19975;-72
2023/06/25 09:52:43;;;;;;;;;;;;;;;27.77;66.31;101695.28;5011275;28;20439;-73
2023/06/25 09:55:10;;;;;;;;;;;;;;;27.79;66.13;101686.81;5008261;28;20401;-74
2023/06/25 09:57:35;;;;;;;;;;;;;;;27.76;59.61;101689.97;5004974;28;19971;-74
2023/06/25 10:00:00;;;;;;;;;;;;;;;27.61;59.52;101695.72;5007336;28;19929;-72
2023/06/25 10:02:25;;;;;;;;;;;;;;;27.71;63.93;101696.13;5008107;28;19929;-67
2023/06/25 10:04:51;;;;;;;;;;;;;;;27.76;65.42;101698.25;5003117;28;20358;-80
2023/06/25 10:07:16;;;;;;;;;;;;;;;27.86;65.01;101692.31;5009814;28;20803;-73
2023/06/25 10:09:51;;;;;;;;;;;;;;;27.99;62.26;101689.50;5008901;28;19948;-74
2023/06/25 10:12:18;;;;;;;;;;;;;;;28.25;62.88;101687.75;5009910;28;19932;-73
2023/06/25 10:14:43;;;;;;;;;;;;;;;28.26;62.45;101684.81;5005799;28;19925;-73
2023/06/25 10:17:08;;;;;;;;;;;;;;;28.37;61.53;101669.47;5008385;28;20034;-73
2023/06/25 10:19:34;;;;;;;;;;;;;;;28.35;56.74;101679.88;5007007;28;19964;-74
2023/06/25 10:22:06;;;;;;;;;;;;;;;28.64;57.69;101666.56;5010969;28;20124;-74
2023/06/25 10:24:38;;;;;;;;;;;;;;;28.69;64.57;101675.06;5024427;28;19952;-73
2023/06/25 10:27:04;;;;;;;;;;;;;;;28.56;61.31;101666.81;5010636;28;20022;-74
2023/06/25 10:29:38;;;;;;;;;;;;;;;28.62;63.65;101660.41;5007613;28;20007;-73
2023/06/25 10:32:03;;;;;;;;;;;;;;;29.01;62.26;101654.91;5004912;28;19921;-72
2023/06/25 10:34:28;;;;;;;;;;;;;;;29.12;55.02;101664.38;5019825;28;19975;-73
2023/06/25 10:36:53;;;;;;;;;;;;;;;28.98;57.44;101652.56;5010786;28;20454;-72
2023/06/25 10:39:19;;;;;;;;;;;;;;;28.97;59.76;101645.34;5006042;28;20412;-73
2023/06/25 10:41:47;;;;;;;;;;;;;;;29.02;56.43;101654.66;5005595;28;19925;-72
2023/06/25 10:44:12;;;;;;;;;;;;;;;29.62;53.79;101653.34;5005428;28;19921;-74
2023/06/25 10:46:39;;;;;;;;;;;;;;;30.17;56.12;101653.66;5014572;28;20141;-74
2023/06/25 10:49:05;;;;;;;;;;;;;;;29.45;57.24;101653.06;5009694;28;19921;-76
2023/06/25 10:51:32;;;;;;;;;;;;;;;29.47;57.97;101653.69;5006892;28;19921;-76
2023/06/25 10:53:57;;;;;;;;;;;;;;;29.52;48.36;101646.63;5009658;28;19921;-73
2023/06/25 10:56:23;;;;;;;;;;;;;;;29.54;50.66;101647.25;5011321;28;19921;-76
2023/06/25 10:58:57;;;;;;;;;;;;;;;29.74;50.39;101634.06;5006901;28;19980;-74
2023/06/25 11:01:23;;;;;;;;;;;;;;;29.88;50.92;101633.94;5008057;28;19925;-74
2023/06/25 11:03:48;;;;;;;;;;;;;;;29.80;48.78;101632.28;5018890;28;19921;-71
2023/06/25 11:06:13;;;;;;;;;;;;;;;30.12;49.17;101637.72;5006969;28;19973;-75
2023/06/25 11:08:40;;;;;;;;;;;;;;;30.38;53.23;101630.16;5012156;28;20016;-73
2023/06/25 11:11:05;;;;;;;;;;;;;;;31.00;51.00;101623.53;5003045;28;19943;-73
2023/06/25 11:13:31;;;;;;;;;;;;;;;31.68;47.50;101626.81;5009586;28;20319;-72
2023/06/25 11:15:56;;;;;;;;;;;;;;;32.29;43.67;101625.69;5009274;28;20324;-73
2023/06/25 11:18:22;;;;;;;;;;;;;;;32.96;41.83;101615.81;5006785;28;19964;-73
2023/06/25 11:20:47;;;;;;;;;;;;;;;31.54;45.66;101622.63;5025431;28;20013;-73
2023/06/25 11:23:16;;;;;;;;;;;;;;;31.25;44.08;101625.28;5001938;28;21067;-73
2023/06/25 11:25:41;;;;;;;;;;;;;;;31.24;43.32;101616.13;5009649;28;20438;-74
2023/06/25 11:28:14;;;;;;;;;;;;;;;31.41;46.55;101616.22;5008375;28;19921;-72
2023/06/25 11:30:39;;;;;;;;;;;;;;;31.44;44.74;101614.06;5007011;28;20454;-71
2023/06/25 11:33:11;;;;;;;;;;;;;;;31.16;46.24;101618.38;5007053;28;19944;-72
2023/06/25 11:35:36;;;;;;;;;;;;;;;31.18;45.10;101605.13;5010126;28;20237;-72
2023/06/25 11:38:01;;;;;;;;;;;;;;;31.35;46.93;101608.88;5004819;28;20400;-73
2023/06/25 11:40:29;;;;;;;;;;;;;;;31.31;44.35;101601.25;5008988;28;19998;-72
2023/06/25 11:42:55;;;;;;;;;;;;;;;32.16;42.44;101604.56;5017027;28;19992;-73
2023/06/25 11:45:20;;;;;;;;;;;;;;;33.09;42.50;101595.16;5013073;28;20043;-73
2023/06/25 11:47:46;;;;;;;;;;;;;;;33.49;40.02;101593.28;5013894;28;19948;-73
2023/06/25 11:50:12;;;;;;;;;;;;;;;32.95;41.15;101594.66;5010871;28;19944;-72
2023/06/25 11:52:37;;;;;;;;;;;;;;;32.08;40.54;101586.34;5029320;28;20342;-74
2023/06/25 11:55:03;;;;;;;;;;;;;;;31.92;44.15;101587.94;5015125;28;19928;-73
2023/06/25 11:57:28;;;;;;;;;;;;;;;32.09;44.35;101587.19;5012054;28;19925;-73
2023/06/25 11:59:53;;;;;;;;;;;;;;;32.46;42.97;101573.78;5009084;28;19999;-72
2023/06/25 12:02:19;;;;;;;;;;;;;;;32.93;43.99;101573.78;5006865;28;19986;-72
2023/06/25 12:04:44;;;;;;;;;;;;;;;32.64;39.68;101577.41;5008681;28;19925;-75
2023/06/25 12:07:09;;;;;;;;;;;;;;;32.39;40.87;101533.34;5006851;28;19959;-74
2023/06/25 12:09:34;;;;;;;;;;;;;;;32.40;43.59;101571.16;5013076;28;20377;-76
2023/06/25 12:11:59;;;;;;;;;;;;;;;32.16;40.82;101572.06;5024262;28;19948;-74
2023/06/25 12:14:25;;;;;;;;;;;;;;;32.14;43.58;101565.91;5002576;28;20352;-72
2023/06/25 12:16:50;;;;;;;;;;;;;;;32.30;39.87;101572.66;5009044;28;19928;-73
2023/06/25 12:19:15;;;;;;;;;;;;;;;32.39;37.93;101563.91;5013724;28;19925;-75
2023/06/25 12:21:40;;;;;;;;;;;;;;;31.94;39.98;101568.28;5004876;28;19927;-73